Blueberry, Minnesota
Current Conditions -  °F | °C
As of 2:21 AM on Monday 26 Jan 2015 (Local Time) from KPKD Reporting Station
Overcast Overcast  
Wind Chill: 16°   Ceiling: 5000
Heat Index: 26°   Visibility: 10mi
Dew Point: 21°   Wind: 12mph
Humidity: 81%   Direction: 180°S
Pressure: 29.66"   Gusts: NA
Location:  46.7591°N, 94.9748°W
Report Text: KPKD 260821Z AUTO 18010KT 10SM FEW016 OVC050 M03/M06 A2966 RMK AO2 PRESFR T10331061
Loading
Personal Weather Stations






























Interactive Weather Map New forecast layout! Learn more

10-Day Weather Forecast

Advertisements
Track Severe Weather on mobile